Terminal Aerodrome Forecast
Issued by NWS Portland, ME

Home | Current Version | Previous Version | Text Only | Print | Product List | Glossary On
Versions: 1 2 3 4 5 6 7 8 9 10 11 12 13 14 15 16 17 18 19
000
FTUS41 KGYX 071735
TAFPWM
TAF
KPWM 071735Z 0718/0818 19012G20KT P6SM BKN012 OVC040
     FM072000 18011KT P6SM -SHRA BKN025
     FM080000 17008KT 4SM BR OVC040
     FM081000 19005KT 1 1/2SM -SHRA BR OVC025
     FM081300 27009KT P6SM BKN050=

USA.gov is the U.S. government's official web portal to all federal, state and local government web resources and services.